Time;durP1;ratioP1;P1;durP2;ratioP2;P2;SDS_P1;SDS_P2;PMS_P1;PMS_P2;Temp;Humidity;BMP_temperature;BMP_pressure;BME280_temperature;BME280_humidity;BME280_pressure;Samples;Min_cycle;Max_cycle;Signal;HPM_P1;HPM_P2
2022/10/29 00:01:44;;;;;;;15.05;7.03;;;;;;;13.23;97.26;102044.03;4991745;28;20092;-74
2022/10/29 00:04:09;;;;;;;16.20;7.53;;;;;;;13.20;97.87;102036.03;4991129;28;20029;-74
2022/10/29 00:06:35;;;;;;;14.13;7.03;;;;;;;13.16;97.31;102037.19;4991510;28;20494;-74
2022/10/29 00:09:00;;;;;;;12.20;6.97;;;;;;;13.09;97.53;102031.22;4989822;28;20176;-73
2022/10/29 00:11:26;;;;;;;16.05;8.30;;;;;;;13.05;97.43;102026.94;5003431;28;20062;-74
2022/10/29 00:13:53;;;;;;;15.88;7.78;;;;;;;13.01;97.81;102019.94;5005353;28;20042;-74
2022/10/29 00:16:22;;;;;;;16.92;8.05;;;;;;;12.96;97.37;102017.50;4996728;28;20093;-74
2022/10/29 00:18:47;;;;;;;15.82;8.13;;;;;;;12.92;97.23;102017.78;4994555;28;20378;-74
2022/10/29 00:21:15;;;;;;;10.85;7.10;;;;;;;12.88;97.08;102019.84;5007937;28;20042;-73
2022/10/29 00:23:41;;;;;;;14.15;7.45;;;;;;;12.84;97.06;102025.59;4997590;28;20042;-74
2022/10/29 00:26:06;;;;;;;19.05;7.97;;;;;;;12.81;97.40;102028.50;4991118;28;20133;-74
2022/10/29 00:28:32;;;;;;;15.93;8.18;;;;;;;12.80;97.07;102035.81;4990227;28;20092;-74
2022/10/29 00:31:03;;;;;;;18.75;7.78;;;;;;;12.76;96.91;102031.53;5006000;28;20048;-74
2022/10/29 00:33:28;;;;;;;14.70;7.18;;;;;;;12.73;97.01;102029.88;5003225;28;20049;-74
2022/10/29 00:35:54;;;;;;;15.00;8.48;;;;;;;12.71;97.52;102034.53;5010182;28;20449;-74
2022/10/29 00:38:19;;;;;;;12.07;7.53;;;;;;;12.69;97.26;102035.63;5000433;28;20084;-74
2022/10/29 00:40:45;;;;;;;17.80;8.65;;;;;;;12.70;97.57;102035.53;4991042;28;20443;-74
2022/10/29 00:43:12;;;;;;;16.40;7.40;;;;;;;12.70;97.48;102038.25;4990550;28;20625;-74
2022/10/29 00:45:41;;;;;;;19.48;9.30;;;;;;;12.68;98.42;102033.84;4989121;28;20442;-74
2022/10/29 00:48:06;;;;;;;15.48;8.57;;;;;;;12.69;97.93;102044.69;4998996;28;20047;-74
2022/10/29 00:50:32;;;;;;;14.63;7.30;;;;;;;12.69;97.16;102046.53;4988985;28;20145;-74
2022/10/29 00:52:58;;;;;;;15.85;9.57;;;;;;;12.69;99.44;102033.78;4989160;28;20018;-74
2022/10/29 00:55:23;;;;;;;14.95;8.30;;;;;;;12.75;98.67;102041.56;4990195;28;20542;-74
2022/10/29 00:57:52;;;;;;;15.75;8.48;;;;;;;12.80;98.24;102045.88;4990254;28;20034;-74
2022/10/29 01:00:20;;;;;;;13.18;8.57;;;;;;;12.82;97.96;102043.91;4990115;28;20141;-74
2022/10/29 01:02:45;;;;;;;19.52;8.65;;;;;;;12.82;98.52;102038.44;4990443;28;20133;-74
2022/10/29 01:05:14;;;;;;;18.63;8.45;;;;;;;12.84;98.34;102040.13;4972418;28;20053;-74
2022/10/29 01:07:39;;;;;;;16.27;8.07;;;;;;;12.86;98.63;102043.63;4990040;28;20117;-74
2022/10/29 01:10:05;;;;;;;20.10;8.45;;;;;;;12.87;98.56;102030.84;4991374;28;20134;-74
2022/10/29 01:12:51;;;;;;;13.32;8.02;;;;;;;12.88;98.32;102029.88;5009909;28;20032;-74
2022/10/29 01:15:25;;;;;;;19.33;9.45;;;;;;;12.89;98.32;102026.16;4993681;28;20035;-74
2022/10/29 01:18:16;;;;;;;15.88;7.97;;;;;;;12.87;98.64;102018.09;4989804;28;20117;-74
2022/10/29 01:20:51;;;;;;;16.60;8.10;;;;;;;12.82;97.87;102012.00;4989642;28;20030;-74
2022/10/29 01:23:49;;;;;;;15.45;8.80;;;;;;;12.76;97.78;102012.41;4990218;28;20069;-74
2022/10/29 01:26:34;;;;;;;14.90;8.95;;;;;;;12.70;98.34;102010.94;4990292;28;20034;-74
2022/10/29 01:29:14;;;;;;;14.80;8.13;;;;;;;12.63;97.47;102012.28;4991807;28;20102;-74
2022/10/29 01:31:59;;;;;;;13.90;8.40;;;;;;;12.62;97.10;102021.47;5003591;28;20045;-74
2022/10/29 01:34:44;;;;;;;18.17;8.32;;;;;;;12.57;97.26;102020.88;5009074;28;20585;-74
2022/10/29 01:37:23;;;;;;;16.75;7.90;;;;;;;12.55;97.78;102005.56;5006988;28;20038;-74
2022/10/29 01:39:57;;;;;;;15.63;8.90;;;;;;;12.52;98.82;102004.78;5007997;28;20096;-75
2022/10/29 01:42:33;;;;;;;22.40;9.60;;;;;;;12.48;98.84;101996.88;5009359;28;20038;-74
2022/10/29 01:45:04;;;;;;;18.90;8.55;;;;;;;12.43;99.06;101993.56;4996770;28;20104;-74
2022/10/29 01:47:37;;;;;;;12.40;7.68;;;;;;;12.36;97.85;101989.47;4989668;28;20037;-74
2022/10/29 01:50:06;;;;;;;15.68;8.32;;;;;;;12.31;97.77;101984.28;4989056;28;20074;-75
2022/10/29 01:52:34;;;;;;;17.05;8.88;;;;;;;12.31;99.04;101987.00;4989591;28;20188;-74
2022/10/29 01:55:00;;;;;;;20.48;9.00;;;;;;;12.28;99.23;101965.38;4989532;28;20042;-74
2022/10/29 01:57:34;;;;;;;14.55;7.45;;;;;;;12.23;98.17;101972.97;4988237;28;20050;-74
2022/10/29 02:00:03;;;;;;;16.23;8.60;;;;;;;12.18;98.67;101966.91;4988998;28;20481;-74
2022/10/29 02:03:14;;;;;;;17.73;8.90;;;;;;;12.18;99.33;101975.97;4989644;28;20083;-74
2022/10/29 02:06:01;;;;;;;15.07;7.55;;;;;;;12.14;97.91;101970.78;4989231;28;20092;-75
2022/10/29 02:08:38;;;;;;;19.27;8.85;;;;;;;12.14;99.31;101977.13;4998615;28;20144;-74
2022/10/29 02:11:14;;;;;;;15.15;7.07;;;;;;;12.09;97.41;101967.47;5009193;28;20038;-75
2022/10/29 02:13:50;;;;;;;13.50;7.35;;;;;;;12.07;97.70;101975.72;5006144;28;20177;-75
2022/10/29 02:16:16;;;;;;;16.25;8.13;;;;;;;12.04;97.56;101966.88;4990205;28;20045;-75
2022/10/29 02:18:47;;;;;;;21.92;9.65;;;;;;;12.03;97.90;101962.38;4989148;28;20046;-75
2022/10/29 02:21:16;;;;;;;11.70;7.07;;;;;;;12.02;98.04;101963.34;4987853;28;20042;-75
2022/10/29 02:23:43;;;;;;;18.13;7.80;;;;;;;12.02;98.59;101961.50;5004975;28;20393;-75
2022/10/29 02:26:08;;;;;;;17.52;7.85;;;;;;;12.02;98.90;101966.94;4991110;28;20021;-75
2022/10/29 02:28:34;;;;;;;17.73;8.90;;;;;;;12.03;99.89;101949.63;5007745;28;20144;-75
2022/10/29 02:30:59;;;;;;;18.13;7.57;;;;;;;12.03;98.72;101956.91;4974106;28;20038;-75
2022/10/29 02:33:24;;;;;;;22.33;10.02;;;;;;;12.00;100.00;101953.41;4995874;28;20038;-75
2022/10/29 02:35:50;;;;;;;15.30;8.88;;;;;;;11.99;99.88;101946.22;4987807;28;20053;-75
2022/10/29 02:38:15;;;;;;;15.13;9.48;;;;;;;11.98;100.00;101949.00;4988230;28;20052;-75
2022/10/29 02:40:40;;;;;;;13.95;6.93;;;;;;;11.92;99.27;101939.34;4989339;28;20474;-75
2022/10/29 02:43:06;;;;;;;26.55;10.88;;;;;;;11.89;100.00;101942.28;4989019;28;20056;-75
2022/10/29 02:45:31;;;;;;;53.33;10.55;;;;;;;11.84;100.00;101941.66;4988806;28;20030;-75
2022/10/29 02:47:57;;;;;;;14.60;8.18;;;;;;;11.83;100.00;101947.22;4995589;28;20092;-76
2022/10/29 02:50:22;;;;;;;16.80;7.80;;;;;;;11.81;99.28;101940.97;5007173;28;20026;-76
2022/10/29 02:52:47;;;;;;;16.90;8.50;;;;;;;11.82;99.42;101940.88;5004261;28;20038;-76
2022/10/29 02:55:13;;;;;;;17.70;8.30;;;;;;;11.73;98.91;101923.19;4988906;28;20343;-75
2022/10/29 02:57:38;;;;;;;16.13;7.78;;;;;;;11.78;98.40;101942.00;4991771;28;20125;-75
2022/10/29 03:00:04;;;;;;;14.73;7.65;;;;;;;11.73;98.05;101936.81;5003841;28;20041;-76
2022/10/29 03:02:29;;;;;;;17.55;9.77;;;;;;;11.76;98.87;101933.06;4996612;28;20497;-76
2022/10/29 03:04:55;;;;;;;21.10;10.40;;;;;;;11.77;99.39;101931.19;4992359;28;20050;-75
2022/10/29 03:07:20;;;;;;;16.25;8.55;;;;;;;11.74;98.22;101924.94;4992095;28;20558;-75
2022/10/29 03:09:46;;;;;;;20.27;9.35;;;;;;;11.65;98.54;101928.22;4992742;28;20092;-76
2022/10/29 03:12:11;;;;;;;14.68;7.75;;;;;;;11.63;98.61;101922.00;4992498;28;20117;-76
2022/10/29 03:14:36;;;;;;;23.40;9.30;;;;;;;11.60;98.46;101924.88;4993000;28;20030;-75
2022/10/29 03:17:02;;;;;;;15.52;8.50;;;;;;;11.56;97.87;101919.72;4992352;28;20038;-75
2022/10/29 03:19:27;;;;;;;19.50;9.13;;;;;;;11.55;97.66;101927.00;5011824;28;20489;-75
2022/10/29 03:21:52;;;;;;;17.83;9.60;;;;;;;11.57;98.84;101922.38;5011979;28;20745;-75
2022/10/29 03:24:18;;;;;;;19.23;9.13;;;;;;;11.58;98.47;101915.06;4995145;28;20501;-76
2022/10/29 03:26:43;;;;;;;19.48;9.60;;;;;;;11.60;98.85;101915.84;4974719;28;20410;-75
2022/10/29 03:29:08;;;;;;;25.80;12.38;;;;;;;11.61;100.00;101913.03;4991828;28;20053;-75
2022/10/29 03:31:34;;;;;;;18.75;10.35;;;;;;;11.65;100.00;101917.31;4991997;28;20029;-75
2022/10/29 03:33:59;;;;;;;19.45;10.90;;;;;;;11.67;100.00;101909.94;4991575;28;20049;-75
2022/10/29 03:36:25;;;;;;;21.73;8.70;;;;;;;11.65;99.42;101895.50;4990545;28;20133;-76
2022/10/29 03:38:50;;;;;;;18.27;10.55;;;;;;;11.72;100.00;101898.75;4992189;28;20108;-76
2022/10/29 03:41:16;;;;;;;16.73;9.63;;;;;;;11.75;100.00;101898.59;4992530;28;20049;-76
2022/10/29 03:43:41;;;;;;;14.73;9.20;;;;;;;11.78;99.60;101903.84;4993176;28;20026;-76
2022/10/29 03:46:07;;;;;;;16.35;9.15;;;;;;;11.77;99.32;101896.63;4992147;28;20018;-76
2022/10/29 03:48:33;;;;;;;17.85;10.68;;;;;;;11.80;99.11;101898.28;4986956;28;20037;-75
2022/10/29 03:51:06;;;;;;;15.32;8.85;;;;;;;11.85;98.86;101893.47;5001693;28;20051;-76
2022/10/29 03:53:33;;;;;;;20.38;9.73;;;;;;;11.86;99.66;101885.19;5006631;28;20511;-76
2022/10/29 03:55:59;;;;;;;18.55;10.05;;;;;;;11.88;99.48;101898.72;4991583;28;20513;-76
2022/10/29 03:58:25;;;;;;;21.23;9.40;;;;;;;11.91;99.91;101890.38;4991222;28;20058;-75
2022/10/29 04:01:07;;;;;;;22.05;10.68;;;;;;;11.90;100.00;101878.59;5005746;28;20517;-76
2022/10/29 04:03:34;;;;;;;20.50;9.73;;;;;;;11.89;100.00;101873.22;4990320;28;20040;-76
2022/10/29 04:06:01;;;;;;;17.00;9.60;;;;;;;11.86;100.00;101867.97;4990701;28;20121;-77
2022/10/29 04:08:26;;;;;;;15.32;8.93;;;;;;;11.88;100.00;101861.44;4995652;28;20486;-76
2022/10/29 04:10:52;;;;;;;13.20;9.00;;;;;;;11.86;100.00;101868.84;4992197;28;20042;-76
2022/10/29 04:13:18;;;;;;;15.15;9.25;;;;;;;11.86;100.00;101867.97;4991427;28;20407;-75
2022/10/29 04:15:44;;;;;;;18.85;8.38;;;;;;;11.85;100.00;101869.81;4990154;28;20508;-76
2022/10/29 04:18:10;;;;;;;18.05;9.52;;;;;;;11.84;100.00;101865.31;5000614;28;20044;-77
2022/10/29 04:20:37;;;;;;;23.00;10.45;;;;;;;11.84;100.00;101859.84;5011041;28;20128;-77
2022/10/29 04:23:03;;;;;;;18.48;9.48;;;;;;;11.82;100.00;101856.38;5009675;28;20022;-77
2022/10/29 04:25:28;;;;;;;13.10;8.90;;;;;;;11.83;100.00;101854.50;5010922;28;20037;-76
2022/10/29 04:27:54;;;;;;;25.63;11.23;;;;;;;11.85;100.00;101856.19;4993894;28;20034;-76
2022/10/29 04:30:20;;;;;;;15.23;8.68;;;;;;;11.84;100.00;101851.69;4990609;28;20129;-76
2022/10/29 04:32:46;;;;;;;21.27;10.80;;;;;;;11.87;100.00;101850.63;4989799;28;20113;-77
2022/10/29 04:35:11;;;;;;;16.17;8.13;;;;;;;11.83;100.00;101844.47;4990579;28;20080;-76
2022/10/29 04:37:36;;;;;;;16.90;8.20;;;;;;;11.84;100.00;101848.94;4992816;28;20042;-76
2022/10/29 04:40:03;;;;;;;16.50;8.23;;;;;;;11.83;100.00;101840.88;4992613;28;20061;-75
2022/10/29 04:42:28;;;;;;;17.77;8.55;;;;;;;11.81;100.00;101845.53;5009034;28;20120;-76
2022/10/29 04:44:54;;;;;;;15.20;7.95;;;;;;;11.79;100.00;101850.19;4998841;28;20040;-77
2022/10/29 04:47:19;;;;;;;17.35;8.15;;;;;;;11.74;100.00;101848.59;4989333;28;20037;-76
2022/10/29 04:49:44;;;;;;;17.00;8.95;;;;;;;11.75;100.00;101860.41;4990846;28;20044;-76
2022/10/29 04:52:10;;;;;;;17.30;9.02;;;;;;;11.73;100.00;101857.75;4990623;28;20080;-76
2022/10/29 04:54:35;;;;;;;16.05;9.07;;;;;;;11.67;100.00;101849.97;4990432;28;20168;-76
2022/10/29 04:57:00;;;;;;;15.38;9.50;;;;;;;11.70;100.00;101854.34;5008771;28;20041;-75
2022/10/29 04:59:26;;;;;;;21.92;10.57;;;;;;;11.71;100.00;101859.72;5002692;28;20439;-75
2022/10/29 05:01:51;;;;;;;18.38;10.13;;;;;;;11.68;100.00;101848.13;4997483;28;20508;-75
2022/10/29 05:04:16;;;;;;;17.52;10.38;;;;;;;11.66;100.00;101848.22;4991317;28;20466;-76
2022/10/29 05:06:42;;;;;;;21.77;10.82;;;;;;;11.65;100.00;101845.56;4990351;28;20450;-75
2022/10/29 05:09:07;;;;;;;22.65;11.38;;;;;;;11.64;100.00;101850.16;5003049;28;20164;-76
2022/10/29 05:11:32;;;;;;;22.73;11.75;;;;;;;11.65;100.00;101841.00;5008596;28;20032;-76
2022/10/29 05:13:58;;;;;;;21.50;11.27;;;;;;;11.66;100.00;101840.03;5006749;28;20054;-75
2022/10/29 05:16:23;;;;;;;18.95;10.00;;;;;;;11.64;100.00;101836.53;4990185;28;20058;-76
2022/10/29 05:18:48;;;;;;;23.17;11.45;;;;;;;11.70;100.00;101840.72;4988076;28;20070;-76
2022/10/29 05:21:14;;;;;;;20.08;10.73;;;;;;;11.67;100.00;101827.28;5001207;28;20137;-75
2022/10/29 05:23:39;;;;;;;15.65;8.90;;;;;;;11.63;100.00;101833.91;4996677;28;20029;-76
2022/10/29 05:26:04;;;;;;;22.67;10.68;;;;;;;11.62;100.00;101835.75;5008338;28;20357;-75
2022/10/29 05:28:30;;;;;;;19.90;10.38;;;;;;;11.64;100.00;101832.91;4991447;28;20072;-76
2022/10/29 05:30:59;;;;;;;26.95;11.98;;;;;;;11.65;100.00;101829.22;4987997;28;20556;-76
2022/10/29 05:33:24;;;;;;;23.65;11.43;;;;;;;11.65;100.00;101823.75;4988326;28;20042;-76
2022/10/29 05:35:50;;;;;;;18.85;10.98;;;;;;;11.66;100.00;101826.41;4989508;28;20051;-76
2022/10/29 05:38:17;;;;;;;17.15;10.75;;;;;;;11.66;100.00;101823.69;4989891;28;20060;-76
2022/10/29 05:40:43;;;;;;;19.95;9.32;;;;;;;11.67;100.00;101820.00;4989790;28;20030;-76
2022/10/29 05:43:16;;;;;;;20.80;11.13;;;;;;;11.69;100.00;101820.75;4989350;28;20449;-76
2022/10/29 05:45:43;;;;;;;21.83;11.35;;;;;;;11.71;100.00;101823.41;4999887;28;20046;-76
2022/10/29 05:48:10;;;;;;;22.58;11.45;;;;;;;11.77;100.00;101820.28;4989906;28;20041;-76
2022/10/29 05:50:35;;;;;;;14.18;9.73;;;;;;;11.76;100.00;101821.28;4995776;28;20038;-75
2022/10/29 05:53:03;;;;;;;21.15;10.93;;;;;;;11.80;100.00;101817.38;4995031;28;20440;-76
2022/10/29 05:55:33;;;;;;;16.98;11.15;;;;;;;11.79;100.00;101809.28;4988104;28;20498;-76
2022/10/29 05:58:05;;;;;;;20.23;12.13;;;;;;;11.77;100.00;101814.84;4989571;28;20042;-76
2022/10/29 06:00:33;;;;;;;22.37;11.83;;;;;;;11.74;100.00;101815.91;4988923;28;20045;-76
2022/10/29 06:02:58;;;;;;;21.95;11.32;;;;;;;11.73;100.00;101808.69;4989399;28;20085;-76
2022/10/29 06:05:24;;;;;;;23.70;11.80;;;;;;;11.72;100.00;101795.16;4989031;28;20471;-75
2022/10/29 06:07:58;;;;;;;30.38;13.23;;;;;;;11.77;100.00;101803.06;4989795;28;20050;-75
2022/10/29 06:10:26;;;;;;;25.45;13.40;;;;;;;11.81;100.00;101804.63;4989583;28;20057;-76
2022/10/29 06:12:52;;;;;;;23.85;12.23;;;;;;;11.81;100.00;101810.09;4989414;28;20030;-76
2022/10/29 06:15:18;;;;;;;30.10;12.48;;;;;;;11.86;100.00;101805.25;4989141;28;20030;-76
2022/10/29 06:17:44;;;;;;;22.40;12.50;;;;;;;11.88;100.00;101815.06;4987141;28;20037;-76
2022/10/29 06:20:11;;;;;;;22.48;11.20;;;;;;;11.91;100.00;101816.75;5008581;28;20434;-76
2022/10/29 06:22:37;;;;;;;20.90;11.13;;;;;;;11.89;100.00;101811.41;5005645;28;20065;-77
2022/10/29 06:25:03;;;;;;;19.77;11.57;;;;;;;11.93;100.00;101823.84;4989190;28;20022;-76
2022/10/29 06:27:28;;;;;;;23.95;12.05;;;;;;;11.96;100.00;101817.34;4988546;28;20049;-76
2022/10/29 06:29:53;;;;;;;23.38;12.05;;;;;;;11.97;100.00;101819.06;4995056;28;20504;-76
2022/10/29 06:32:19;;;;;;;21.60;11.93;;;;;;;12.05;100.00;101824.06;5001633;28;20436;-76
2022/10/29 06:34:44;;;;;;;25.80;14.15;;;;;;;12.17;100.00;101816.00;5000121;28;20042;-76
2022/10/29 06:37:10;;;;;;;30.13;13.98;;;;;;;12.20;100.00;101823.09;5001815;28;20157;-76
2022/10/29 06:39:35;;;;;;;26.65;13.45;;;;;;;12.24;100.00;101819.19;5000735;28;20552;-76
2022/10/29 06:42:01;;;;;;;30.27;15.57;;;;;;;12.27;100.00;101821.72;4999230;28;20097;-76
2022/10/29 06:44:28;;;;;;;27.60;14.30;;;;;;;12.21;100.00;101812.06;4997974;28;20041;-76
2022/10/29 06:46:54;;;;;;;31.73;14.65;;;;;;;12.29;100.00;101821.63;5001857;28;20037;-76
2022/10/29 06:49:20;;;;;;;26.40;14.02;;;;;;;12.29;100.00;101816.16;4998214;28;20032;-77
2022/10/29 06:51:45;;;;;;;25.38;13.27;;;;;;;12.25;100.00;101816.34;5000537;28;20038;-76
2022/10/29 06:54:11;;;;;;;29.85;13.93;;;;;;;12.26;100.00;101822.69;4997622;28;20048;-76
2022/10/29 06:56:36;;;;;;;27.15;13.35;;;;;;;12.27;100.00;101821.72;5000599;28;20048;-75
2022/10/29 06:59:02;;;;;;;24.58;11.88;;;;;;;12.27;100.00;101826.31;4976911;28;20095;-75
2022/10/29 07:01:29;;;;;;;25.67;13.05;;;;;;;12.28;100.00;101836.25;4996949;28;20037;-75
2022/10/29 07:03:54;;;;;;;28.70;12.30;;;;;;;12.32;100.00;101830.50;4999472;28;20127;-76
2022/10/29 07:06:19;;;;;;;23.85;13.25;;;;;;;12.35;100.00;101824.81;4999165;28;20045;-76
2022/10/29 07:08:45;;;;;;;27.83;14.35;;;;;;;12.43;100.00;101825.22;4998569;28;20053;-76
2022/10/29 07:11:10;;;;;;;34.45;14.98;;;;;;;12.48;100.00;101824.91;5001398;28;20446;-76
2022/10/29 07:13:36;;;;;;;28.25;14.57;;;;;;;12.55;100.00;101819.94;4998136;28;20033;-76
2022/10/29 07:16:01;;;;;;;27.02;13.93;;;;;;;12.60;100.00;101815.94;4999572;28;20552;-76
2022/10/29 07:18:26;;;;;;;37.33;15.85;;;;;;;12.66;100.00;101812.78;5000114;28;20393;-76
2022/10/29 07:20:52;;;;;;;29.50;14.63;;;;;;;12.70;100.00;101808.88;4998588;28;20061;-76
2022/10/29 07:23:17;;;;;;;30.92;14.57;;;;;;;12.75;100.00;101816.78;4991778;28;20104;-77
2022/10/29 07:25:42;;;;;;;36.78;15.50;;;;;;;12.77;100.00;101810.22;4984070;28;20109;-76
2022/10/29 07:28:16;;;;;;;37.25;17.33;;;;;;;12.87;100.00;101805.06;4997702;28;20083;-76
2022/10/29 07:30:43;;;;;;;34.67;17.42;;;;;;;12.91;100.00;101802.97;5003295;28;20030;-77
2022/10/29 07:33:09;;;;;;;42.10;17.45;;;;;;;12.94;100.00;101792.72;4991464;28;20026;-75
2022/10/29 07:35:35;;;;;;;35.47;17.35;;;;;;;12.98;100.00;101798.88;4991472;28;20544;-75
2022/10/29 07:38:02;;;;;;;32.38;16.58;;;;;;;13.01;100.00;101805.00;4990426;28;20034;-75
2022/10/29 07:40:27;;;;;;;33.08;15.57;;;;;;;13.06;100.00;101796.50;4994098;28;20393;-76
2022/10/29 07:42:53;;;;;;;30.30;15.68;;;;;;;13.10;100.00;101800.75;5004143;28;20034;-76
2022/10/29 07:45:19;;;;;;;28.98;16.20;;;;;;;13.16;100.00;101794.88;4989573;28;20038;-76
2022/10/29 07:47:45;;;;;;;34.03;15.98;;;;;;;13.19;100.00;101805.59;4992440;28;20533;-76
2022/10/29 07:50:11;;;;;;;33.33;15.35;;;;;;;13.26;100.00;101803.38;4991176;28;20096;-75
2022/10/29 07:52:37;;;;;;;31.17;15.63;;;;;;;13.31;100.00;101805.78;4990623;28;20046;-75
2022/10/29 07:55:03;;;;;;;30.10;15.90;;;;;;;13.35;100.00;101793.66;4996443;28;20088;-75
2022/10/29 07:57:28;;;;;;;31.15;16.35;;;;;;;13.37;100.00;101794.41;5006642;28;20055;-75
2022/10/29 07:59:54;;;;;;;33.42;14.95;;;;;;;13.36;100.00;101798.13;5002370;28;20423;-75
2022/10/29 08:02:19;;;;;;;32.53;15.43;;;;;;;13.39;100.00;101804.28;4994170;28;20498;-75
2022/10/29 08:04:44;;;;;;;29.77;16.05;;;;;;;13.45;100.00;101801.09;5002612;28;20018;-75
2022/10/29 08:07:10;;;;;;;33.22;16.02;;;;;;;13.54;100.00;101802.34;5010768;28;20057;-75
2022/10/29 08:09:35;;;;;;;32.83;16.20;;;;;;;13.60;100.00;101799.16;4997368;28;20038;-75
2022/10/29 08:12:00;;;;;;;37.00;16.75;;;;;;;13.74;100.00;101800.94;4990419;28;20033;-75
2022/10/29 08:14:26;;;;;;;40.90;17.38;;;;;;;13.88;100.00;101797.22;4990206;28;20030;-75
2022/10/29 08:16:54;;;;;;;33.85;17.58;;;;;;;13.99;100.00;101789.13;4994605;28;20048;-75
2022/10/29 08:19:20;;;;;;;33.53;16.38;;;;;;;14.12;100.00;101786.38;5001548;28;20038;-75
2022/10/29 08:21:46;;;;;;;36.10;18.23;;;;;;;14.23;100.00;101794.69;4991015;28;20034;-75
2022/10/29 08:24:11;;;;;;;33.80;16.95;;;;;;;14.34;100.00;101792.03;4991777;28;20038;-75
2022/10/29 08:26:36;;;;;;;33.50;16.65;;;;;;;14.45;100.00;101778.41;4990747;28;20028;-75
2022/10/29 08:29:02;;;;;;;35.60;17.70;;;;;;;14.52;100.00;101777.03;5006496;28;20034;-75
2022/10/29 08:31:28;;;;;;;33.90;16.45;;;;;;;14.58;100.00;101778.44;4994840;28;20049;-75
2022/10/29 08:33:53;;;;;;;33.17;15.77;;;;;;;14.59;100.00;101776.56;5007118;28;20080;-75
2022/10/29 08:36:18;;;;;;;29.70;15.30;;;;;;;14.63;100.00;101778.97;5010140;28;20365;-75
2022/10/29 08:38:46;;;;;;;27.65;15.60;;;;;;;14.69;100.00;101780.38;4999219;28;20049;-75
2022/10/29 08:41:22;;;;;;;32.30;16.45;;;;;;;14.77;100.00;101797.09;4990463;28;20073;-75
2022/10/29 08:44:00;;;;;;;29.00;16.40;;;;;;;14.88;100.00;101790.84;4990482;28;20038;-75
2022/10/29 08:46:39;;;;;;;33.38;15.65;;;;;;;15.00;100.00;101798.09;4990207;28;20045;-75
2022/10/29 08:49:12;;;;;;;32.40;16.25;;;;;;;15.13;100.00;101785.22;4989975;28;20461;-75
2022/10/29 08:51:43;;;;;;;34.67;15.80;;;;;;;15.24;100.00;101777.03;4990202;28;20038;-75
2022/10/29 08:54:14;;;;;;;29.60;15.35;;;;;;;15.36;100.00;101771.63;4989054;28;20042;-75
2022/10/29 08:56:48;;;;;;;32.60;15.75;;;;;;;15.44;100.00;101786.47;4989776;28;20092;-75
2022/10/29 08:59:24;;;;;;;27.65;15.05;;;;;;;15.53;100.00;101771.19;4992855;28;20037;-75
2022/10/29 09:01:54;;;;;;;29.83;15.48;;;;;;;15.61;100.00;101770.53;5000633;28;20038;-75
2022/10/29 09:04:35;;;;;;;31.60;15.40;;;;;;;15.67;100.00;101768.25;4989402;28;20574;-75
2022/10/29 09:07:07;;;;;;;27.98;14.45;;;;;;;15.73;100.00;101772.38;4989951;28;20081;-75
2022/10/29 09:09:38;;;;;;;28.10;15.13;;;;;;;15.80;100.00;101770.88;5006420;28;20120;-75
2022/10/29 09:12:20;;;;;;;27.80;14.00;;;;;;;15.92;100.00;101752.56;5009243;28;20481;-75
2022/10/29 09:15:02;;;;;;;;;;;;;;;16.06;100.00;101753.19;5004760;28;20033;-75
2022/10/29 09:17:42;;;;;;;24.38;13.13;;;;;;;16.22;100.00;101758.28;4994527;28;19921;-75
2022/10/29 09:20:28;;;;;;;29.38;13.70;;;;;;;16.36;100.00;101757.16;4999671;28;20038;-75
2022/10/29 09:23:07;;;;;;;27.63;13.25;;;;;;;16.47;99.40;101762.66;5000197;28;20402;-75
2022/10/29 09:25:48;;;;;;;30.35;13.43;;;;;;;16.56;98.59;101763.78;4995811;28;20033;-75
2022/10/29 09:28:45;;;;;;;24.00;13.52;;;;;;;16.65;98.50;101764.88;5009467;28;20128;-75
2022/10/29 09:31:16;;;;;;;28.10;11.20;;;;;;;16.66;96.87;101756.50;4994281;28;20116;-75
2022/10/29 09:33:48;;;;;;;24.45;12.38;;;;;;;16.67;97.25;101752.75;5001156;28;20407;-75
2022/10/29 09:36:16;;;;;;;28.55;12.40;;;;;;;16.68;97.09;101745.38;4989878;28;20050;-75
2022/10/29 09:38:53;;;;;;;24.98;12.35;;;;;;;16.70;97.08;101752.50;4996672;28;20481;-75
2022/10/29 09:41:23;;;;;;;24.42;12.18;;;;;;;16.73;96.56;101755.00;5008924;28;20057;-75
2022/10/29 09:44:01;;;;;;;22.30;11.90;;;;;;;16.77;96.20;101750.13;5003343;28;20054;-75
2022/10/29 09:46:52;;;;;;;26.25;12.90;;;;;;;16.80;96.22;101759.00;4991838;28;20038;-75
2022/10/29 09:49:26;;;;;;;22.05;11.52;;;;;;;16.87;96.61;101745.59;4989103;28;20043;-75
2022/10/29 09:52:08;;;;;;;26.95;11.30;;;;;;;16.96;95.91;101738.44;5005637;28;20050;-75
2022/10/29 09:54:35;;;;;;;22.63;11.98;;;;;;;17.06;95.82;101736.66;4989434;28;20136;-75
2022/10/29 09:57:02;;;;;;;20.90;11.32;;;;;;;17.19;97.09;101729.09;4989009;28;20088;-75
2022/10/29 09:59:35;;;;;;;25.00;12.10;;;;;;;17.38;96.31;101727.50;4987644;28;20514;-75
2022/10/29 10:02:01;;;;;;;22.17;12.68;;;;;;;17.54;94.44;101727.91;4988717;28;20492;-75
2022/10/29 10:04:31;;;;;;;27.20;11.10;;;;;;;17.76;93.80;101735.16;4986724;28;20121;-75
2022/10/29 10:07:02;;;;;;;22.48;10.77;;;;;;;17.99;92.35;101730.38;4988612;28;20561;-75
2022/10/29 10:09:28;;;;;;;21.60;10.75;;;;;;;18.22;92.32;101728.28;4988851;28;20049;-75
2022/10/29 10:11:57;;;;;;;18.58;10.02;;;;;;;18.42;91.27;101719.09;4987432;28;20042;-74
2022/10/29 10:14:25;;;;;;;19.60;9.38;;;;;;;18.49;88.14;101724.91;4992375;28;20049;-75
2022/10/29 10:17:00;;;;;;;21.10;9.90;;;;;;;18.52;88.60;101722.75;5000665;28;20026;-75
2022/10/29 10:19:31;;;;;;;18.80;9.75;;;;;;;18.65;87.13;101725.22;4988436;28;20042;-74
2022/10/29 10:21:58;;;;;;;20.30;9.15;;;;;;;18.79;86.73;101721.22;4987620;28;20525;-74
2022/10/29 10:24:30;;;;;;;17.90;8.43;;;;;;;18.95;86.28;101717.91;4988754;28;20038;-75
2022/10/29 10:26:55;;;;;;;17.95;7.85;;;;;;;19.13;85.04;101712.53;4988731;28;20462;-74
2022/10/29 10:29:22;;;;;;;22.35;7.95;;;;;;;19.31;84.77;101721.81;4989182;28;20069;-74
2022/10/29 10:32:08;;;;;;;15.93;7.10;;;;;;;19.50;85.75;101712.66;4997515;28;20145;-74
2022/10/29 10:34:33;;;;;;;16.42;7.53;;;;;;;19.81;85.22;101705.03;5003143;28;20054;-75
2022/10/29 10:37:17;;;;;;;16.75;7.22;;;;;;;19.93;84.85;101709.34;5008230;28;20042;-75
2022/10/29 10:39:59;;;;;;;20.88;7.50;;;;;;;20.00;81.12;101702.19;4987781;28;20038;-74
2022/10/29 10:42:28;;;;;;;21.92;7.18;;;;;;;20.29;80.06;101699.31;4994940;28;20343;-74
2022/10/29 10:45:00;;;;;;;17.02;6.32;;;;;;;20.42;79.72;101698.94;4995448;28;20038;-74
2022/10/29 10:47:30;;;;;;;17.73;5.95;;;;;;;20.60;77.77;101702.63;4988349;28;20030;-75
2022/10/29 10:50:19;;;;;;;16.27;6.18;;;;;;;20.60;77.72;101693.47;4995027;28;20390;-73
2022/10/29 10:52:45;;;;;;;18.25;6.10;;;;;;;20.67;72.20;101688.19;5007596;28;20515;-74
2022/10/29 10:55:21;;;;;;;14.40;5.78;;;;;;;20.82;74.10;101681.97;4998514;28;20037;-74
2022/10/29 10:58:08;;;;;;;13.82;5.38;;;;;;;20.84;71.27;101674.38;4999157;28;20034;-75
2022/10/29 11:00:39;;;;;;;16.33;5.00;;;;;;;21.18;74.40;101690.25;4997291;28;20452;-74
2022/10/29 11:03:07;;;;;;;16.75;5.50;;;;;;;21.35;72.53;101681.06;4992222;28;20141;-74
2022/10/29 11:05:39;;;;;;;10.90;5.43;;;;;;;21.56;72.15;101675.19;5007955;28;20040;-75
2022/10/29 11:08:07;;;;;;;19.70;5.75;;;;;;;21.66;68.58;101683.38;4996252;28;20062;-74
2022/10/29 11:10:44;;;;;;;17.23;5.18;;;;;;;21.80;71.78;101680.00;4988547;28;20030;-74
2022/10/29 11:13:20;;;;;;;10.90;5.15;;;;;;;21.77;70.45;101685.84;4988879;28;20056;-74
2022/10/29 11:15:57;;;;;;;12.30;4.68;;;;;;;21.96;70.19;101683.88;4989355;28;20065;-74
2022/10/29 11:18:47;;;;;;;13.80;3.92;;;;;;;22.20;72.44;101677.66;5000780;28;20441;-73